Time;durP1;ratioP1;P1;durP2;ratioP2;P2;SDS_P1;SDS_P2;PMS_P1;PMS_P2;Temp;Humidity;BMP_temperature;BMP_pressure;BME280_temperature;BME280_humidity;BME280_pressure;Samples;Min_cycle;Max_cycle;Signal;HPM_P1;HPM_P2
2021/12/04 00:04:47;;;;;;;1.87;1.77;;;;;4.60;99492.00;;;;10432265;28;20292;-79
2021/12/04 00:09:50;;;;;;;2.93;2.20;;;;;4.50;99486.00;;;;10510005;27;20222;-79
2021/12/04 00:14:52;;;;;;;2.10;1.90;;;;;4.60;99467.00;;;;10516821;27;20249;-79
2021/12/04 00:19:54;;;;;;;2.30;2.10;;;;;4.60;99460.00;;;;10505321;27;20571;-79
2021/12/04 00:24:56;;;;;;;3.10;2.37;;;;;4.60;99443.00;;;;10522188;28;20241;-79
2021/12/04 00:29:58;;;;;;;2.93;2.63;;;;;4.60;99442.00;;;;10544647;28;20252;-79
2021/12/04 00:51:03;;;;;;;2.90;2.57;;;;;4.60;99417.00;;;;10479904;28;20324;-79
2021/12/04 00:56:05;;;;;;;4.23;2.60;;;;;4.60;99409.00;;;;10463162;28;20193;-79
2021/12/04 01:01:07;;;;;;;2.67;2.40;;;;;4.60;99405.00;;;;10488985;28;20541;-79
2021/12/04 01:06:09;;;;;;;3.13;2.83;;;;;4.60;99404.00;;;;10472677;28;20303;-80
2021/12/04 01:11:11;;;;;;;2.90;2.60;;;;;4.60;99383.00;;;;10488001;28;20225;-80
2021/12/04 01:16:14;;;;;;;5.03;2.90;;;;;4.60;99375.00;;;;10489320;28;20204;-79
2021/12/04 01:21:16;;;;;;;3.13;2.77;;;;;4.60;99360.00;;;;10488891;28;20192;-80
2021/12/04 01:26:18;;;;;;;3.63;3.33;;;;;4.60;99360.00;;;;10486642;28;20842;-80
2021/12/04 01:31:20;;;;;;;4.03;2.90;;;;;4.60;99344.00;;;;10485890;28;20224;-79
2021/12/04 01:36:23;;;;;;;2.73;2.47;;;;;4.60;99346.00;;;;10506580;27;20199;-80
2021/12/04 01:41:26;;;;;;;3.20;2.90;;;;;4.60;99356.00;;;;10467287;28;20214;-79
2021/12/04 01:46:29;;;;;;;3.40;3.10;;;;;4.60;99352.00;;;;10445074;28;20201;-79
2021/12/04 01:51:31;;;;;;;2.97;2.67;;;;;4.60;99362.00;;;;10444852;28;20625;-79
2021/12/04 01:56:34;;;;;;;3.20;2.90;;;;;4.60;99359.00;;;;10468667;28;20467;-79
2021/12/04 02:01:37;;;;;;;3.67;2.97;;;;;4.70;99357.00;;;;10456390;28;20205;-79
2021/12/04 02:06:40;;;;;;;3.30;3.00;;;;;4.70;99352.00;;;;10460708;28;20197;-79
2021/12/04 02:11:41;;;;;;;4.07;3.67;;;;;4.70;99361.00;;;;10444308;28;20781;-79
2021/12/04 02:16:45;;;;;;;3.47;3.17;;;;;4.70;99347.00;;;;10460055;28;20247;-79
2021/12/04 02:21:47;;;;;;;3.80;3.43;;;;;4.70;99329.00;;;;10461283;28;20207;-79
2021/12/04 02:26:50;;;;;;;3.43;3.13;;;;;4.70;99324.00;;;;10467768;28;20235;-79
2021/12/04 02:31:58;;;;;;;3.40;3.10;;;;;4.70;99329.00;;;;10484217;28;20229;-79
2021/12/04 02:37:00;;;;;;;4.23;3.83;;;;;4.70;99331.00;;;;10464958;28;20564;-79
2021/12/04 02:42:06;;;;;;;4.30;3.90;;;;;4.70;99324.00;;;;10467510;28;20201;-78
2021/12/04 02:47:08;;;;;;;3.67;3.33;;;;;4.70;99317.00;;;;10504060;28;20192;-79
2021/12/04 02:52:12;;;;;;;4.53;3.77;;;;;4.70;99320.00;;;;10536007;27;20243;-79
2021/12/04 02:57:15;;;;;;;6.33;3.90;;;;;4.70;99306.00;;;;10536101;27;20208;-78
2021/12/04 03:02:22;;;;;;;3.43;3.13;;;;;4.70;99312.00;;;;10518925;27;20192;-78
2021/12/04 03:07:25;;;;;;;4.07;3.63;;;;;4.70;99304.00;;;;10535749;27;20196;-79
2021/12/04 03:12:28;;;;;;;3.87;3.47;;;;;4.70;99307.00;;;;10534634;27;20228;-79
2021/12/04 03:17:30;;;;;;;3.63;3.33;;;;;4.70;99292.00;;;;10525211;27;20201;-78
2021/12/04 03:22:33;;;;;;;3.93;3.53;;;;;4.70;99273.00;;;;10492519;28;20201;-78
2021/12/04 03:27:35;;;;;;;5.93;4.50;;;;;4.60;99269.00;;;;10505121;28;20197;-79
2021/12/04 03:43:01;;;;;;;6.60;5.30;;;;;4.60;99261.00;;;;10508112;28;20203;-78
2021/12/04 03:48:18;;;;;;;8.60;5.43;;;;;4.60;99256.00;;;;10508417;28;20197;-78
2021/12/04 03:53:20;;;;;;;6.97;5.70;;;;;4.60;99254.00;;;;10491651;28;20231;-78
2021/12/04 03:58:22;;;;;;;6.10;5.50;;;;;4.60;99264.00;;;;10490872;28;20239;-78
2021/12/04 04:03:27;;;;;;;9.53;6.60;;;;;4.60;99242.00;;;;10507079;28;20192;-78
2021/12/04 04:08:29;;;;;;;6.63;5.60;;;;;4.60;99247.00;;;;10490265;28;20197;-79
2021/12/04 04:13:31;;;;;;;6.57;5.83;;;;;4.50;99248.00;;;;10472589;28;20229;-79
2021/12/04 04:18:33;;;;;;;7.17;6.07;;;;;4.60;99248.00;;;;10506342;28;20246;-78
2021/12/04 04:23:35;;;;;;;7.10;6.40;;;;;4.60;99246.00;;;;10506045;28;20204;-78
2021/12/04 04:28:37;;;;;;;7.10;5.50;;;;;4.60;99243.00;;;;10508101;28;20238;-78
2021/12/04 04:33:42;;;;;;;6.97;5.80;;;;;4.60;99255.00;;;;10497823;27;20227;-79
2021/12/04 04:39:42;;;;;;;8.13;6.43;;;;;4.60;99232.00;;;;10517880;28;20257;-78
2021/12/04 05:11:11;;;;;;;8.23;6.53;;;;;4.70;99222.00;;;;10455650;28;20274;-78
2021/12/04 05:16:20;;;;;;;8.80;7.20;;;;;4.70;99219.00;;;;10445711;28;20560;-78
2021/12/04 05:21:22;;;;;;;9.03;7.33;;;;;4.70;99219.00;;;;10436440;28;20201;-78
2021/12/04 05:26:26;;;;;;;10.10;8.00;;;;;4.70;99215.00;;;;10462576;28;20194;-78
2021/12/04 05:31:28;;;;;;;9.40;7.67;;;;;4.70;99205.00;;;;10478148;28;20213;-78
2021/12/04 05:36:30;;;;;;;11.17;8.83;;;;;4.80;99198.00;;;;10478403;28;20292;-78
2021/12/04 05:41:34;;;;;;;12.30;9.13;;;;;4.80;99208.00;;;;10498622;28;20668;-78
2021/12/04 05:47:09;;;;;;;11.73;8.63;;;;;4.80;99204.00;;;;10503327;28;20199;-78
2021/12/04 05:57:23;;;;;;;10.63;7.90;;;;;4.80;99222.00;;;;10542649;28;20200;-78
2021/12/04 06:02:25;;;;;;;11.60;8.43;;;;;4.80;99213.00;;;;10504872;28;20364;-78
2021/12/04 06:07:27;;;;;;;10.43;7.73;;;;;4.80;99213.00;;;;10484021;28;20250;-78
2021/12/04 06:12:29;;;;;;;13.13;9.13;;;;;4.80;99205.00;;;;10528505;28;20609;-78
2021/12/04 06:17:31;;;;;;;10.00;7.50;;;;;4.80;99201.00;;;;10545556;28;20823;-78
2021/12/04 06:22:42;;;;;;;9.93;7.83;;;;;4.80;99205.00;;;;10511506;28;20659;-78
2021/12/04 06:27:43;;;;;;;9.17;7.20;;;;;4.80;99206.00;;;;10528118;28;20196;-78
2021/12/04 06:32:48;;;;;;;10.30;8.13;;;;;4.80;99197.00;;;;10528264;28;20276;-78
2021/12/04 06:37:51;;;;;;;15.67;8.90;;;;;4.80;99200.00;;;;10526735;28;20184;-78
2021/12/04 06:42:55;;;;;;;10.10;7.60;;;;;4.80;99202.00;;;;10528434;28;20249;-78
2021/12/04 06:48:05;;;;;;;11.53;8.63;;;;;4.70;99190.00;;;;10462366;28;20235;-78
2021/12/04 06:53:19;;;;;;;12.40;8.53;;;;;4.70;99193.00;;;;10444825;28;20225;-78
2021/12/04 06:58:24;;;;;;;12.03;7.73;;;;;4.70;99182.00;;;;10477446;28;20251;-78
2021/12/04 07:03:26;;;;;;;11.90;8.17;;;;;4.70;99178.00;;;;10461542;28;20201;-78
2021/12/04 07:08:28;;;;;;;12.13;7.73;;;;;4.70;99182.00;;;;10461732;28;20205;-78
2021/12/04 07:13:33;;;;;;;10.53;7.80;;;;;4.60;99174.00;;;;10451569;28;20217;-77
2021/12/04 07:18:38;;;;;;;9.53;7.17;;;;;4.60;99175.00;;;;10468350;28;20208;-78
2021/12/04 07:23:40;;;;;;;10.40;6.60;;;;;4.70;99180.00;;;;10484122;28;20235;-78
2021/12/04 07:28:42;;;;;;;9.97;6.07;;;;;4.70;99176.00;;;;10484674;28;20190;-77
2021/12/04 07:33:45;;;;;;;8.40;6.20;;;;;4.70;99175.00;;;;10463358;28;20357;-78
2021/12/04 07:38:47;;;;;;;14.57;6.63;;;;;4.80;99172.00;;;;10539250;27;20219;-78
2021/12/04 07:43:49;;;;;;;8.67;6.53;;;;;4.80;99164.00;;;;10463310;28;20213;-77
2021/12/04 07:48:51;;;;;;;8.17;6.27;;;;;4.90;99147.00;;;;10507817;28;20207;-77
2021/12/04 07:53:53;;;;;;;7.37;5.63;;;;;5.00;99145.00;;;;10524907;28;20637;-78
2021/12/04 07:58:55;;;;;;;6.77;5.40;;;;;5.10;99134.00;;;;10509199;28;20196;-78
2021/12/04 08:03:57;;;;;;;7.83;6.23;;;;;5.10;99126.00;;;;10491936;28;20250;-78
2021/12/04 08:08:59;;;;;;;8.03;5.60;;;;;5.20;99125.00;;;;10508363;27;20214;-78
2021/12/04 08:14:05;;;;;;;9.57;5.77;;;;;5.10;99122.00;;;;10534414;27;20262;-78
2021/12/04 08:19:06;;;;;;;8.03;6.10;;;;;5.10;99133.00;;;;10533695;27;20192;-78
2021/12/04 08:24:09;;;;;;;7.67;5.40;;;;;5.20;99120.00;;;;10549026;27;20196;-77
2021/12/04 08:29:11;;;;;;;8.47;5.87;;;;;5.30;99108.00;;;;10486618;28;20255;-77
2021/12/04 08:34:13;;;;;;;6.67;5.63;;;;;5.50;99087.00;;;;10468437;28;20319;-78
2021/12/04 08:39:15;;;;;;;6.70;5.40;;;;;5.90;99094.00;;;;10507980;27;20306;-77
2021/12/04 08:44:19;;;;;;;7.67;5.37;;;;;6.10;99110.00;;;;10515508;28;20203;-77
2021/12/04 08:49:22;;;;;;;7.27;5.83;;;;;6.20;99113.00;;;;10517084;28;20193;-77
2021/12/04 08:54:24;;;;;;;6.47;5.03;;;;;6.10;99123.00;;;;10504267;28;20619;-77
2021/12/04 08:59:27;;;;;;;8.43;6.10;;;;;5.80;99134.00;;;;10474740;28;20200;-78
2021/12/04 09:04:31;;;;;;;8.10;5.50;;;;;5.60;99131.00;;;;10500399;27;20208;-78
2021/12/04 09:09:34;;;;;;;14.53;6.07;;;;;5.60;99117.00;;;;10473793;28;20211;-78
2021/12/04 09:14:56;;;;;;;7.13;5.47;;;;;5.70;99114.00;;;;10503690;28;20232;-77
2021/12/04 09:19:58;;;;;;;6.60;5.40;;;;;5.70;99106.00;;;;10486335;28;20197;-78
2021/12/04 09:25:04;;;;;;;8.23;5.40;;;;;5.80;99097.00;;;;10468876;28;20243;-78
2021/12/04 09:36:05;;;;;;;6.47;5.37;;;;;5.90;99091.00;;;;10476329;28;20229;-77
2021/12/04 10:02:36;;;;;;;11.27;7.57;;;;;5.80;99065.00;;;;10504539;28;20200;-77
2021/12/04 10:34:43;;;;;;;11.40;7.50;;;;;5.90;99018.00;;;;10502130;28;20229;-78
2021/12/04 10:39:45;;;;;;;10.43;7.33;;;;;5.80;99018.00;;;;10497172;28;20261;-79
2021/12/04 10:44:52;;;;;;;11.20;6.97;;;;;5.80;99023.00;;;;10504674;28;20879;-80
2021/12/04 10:55:44;;;;;;;26.43;10.13;;;;;5.70;99033.00;;;;10510974;28;20917;-79
2021/12/04 11:00:54;;;;;;;17.00;10.47;;;;;5.80;99024.00;;;;10510849;28;20578;-78
2021/12/04 11:22:23;;;;;;;16.47;9.00;;;;;5.90;99024.00;;;;10509710;28;20822;-79
2021/12/04 11:27:48;;;;;;;14.57;7.67;;;;;5.90;99026.00;;;;10465682;28;20193;-79
2021/12/04 11:43:49;;;;;;;10.30;6.17;;;;;5.80;99033.00;;;;10508540;28;20246;-79
2021/12/04 11:48:52;;;;;;;14.67;5.53;;;;;5.90;99020.00;;;;10491274;28;20729;-79
2021/12/04 11:53:55;;;;;;;8.53;5.37;;;;;5.90;99012.00;;;;10490612;28;20225;-79
2021/12/04 11:58:57;;;;;;;7.23;5.13;;;;;5.90;98994.00;;;;10464853;28;20197;-78
2021/12/04 12:04:05;;;;;;;7.57;5.20;;;;;5.90;98993.00;;;;10449300;28;20213;-80
2021/12/04 12:09:15;;;;;;;8.87;4.90;;;;;6.00;98995.00;;;;10432784;28;20255;-79
2021/12/04 12:14:35;;;;;;;8.60;5.67;;;;;6.00;98997.00;;;;10470133;28;20232;-78
2021/12/04 12:19:43;;;;;;;7.20;5.47;;;;;6.10;99000.00;;;;10467618;28;20267;-79
2021/12/04 12:41:08;;;;;;;9.93;5.70;;;;;6.10;99014.00;;;;10502050;28;20275;-79
2021/12/04 12:46:10;;;;;;;13.47;6.87;;;;;6.10;99009.00;;;;10479118;28;20189;-78
2021/12/04 12:51:12;;;;;;;5.47;4.23;;;;;6.00;99011.00;;;;10472012;28;20221;-79
2021/12/04 12:56:16;;;;;;;7.40;5.37;;;;;6.00;99003.00;;;;10472461;28;20200;-79
2021/12/04 13:12:21;;;;;;;9.47;6.37;;;;;6.40;99016.00;;;;10474275;28;20213;-79
2021/12/04 13:17:28;;;;;;;11.47;7.37;;;;;6.30;99025.00;;;;10446941;28;20200;-79
2021/12/04 13:22:31;;;;;;;8.53;7.37;;;;;6.20;99025.00;;;;10446851;28;20675;-79
2021/12/04 13:32:42;;;;;;;8.93;6.63;;;;;6.30;99038.00;;;;10503906;28;20242;-78
2021/12/04 13:37:45;;;;;;;13.00;6.63;;;;;6.30;99034.00;;;;10502563;28;20200;-79
2021/12/04 13:42:48;;;;;;;11.87;7.60;;;;;6.30;99051.00;;;;10486686;28;20897;-78
2021/12/04 13:47:57;;;;;;;12.90;6.80;;;;;6.30;99056.00;;;;10502812;28;20193;-78
2021/12/04 13:53:28;;;;;;;10.97;6.93;;;;;6.20;99062.00;;;;10503220;28;20219;-80
2021/12/04 13:58:31;;;;;;;13.87;7.13;;;;;6.40;99064.00;;;;10503221;28;20204;-78
2021/12/04 14:03:33;;;;;;;11.83;6.97;;;;;6.80;99067.00;;;;10469229;28;20197;-79
2021/12/04 14:08:35;;;;;;;10.40;5.43;;;;;6.70;99069.00;;;;10472504;28;20192;-79
2021/12/04 14:13:39;;;;;;;12.90;6.43;;;;;6.50;99080.00;;;;10511785;28;20514;-79
2021/12/04 14:18:42;;;;;;;7.93;5.37;;;;;6.40;99085.00;;;;10459194;28;20223;-79
2021/12/04 14:23:47;;;;;;;10.77;5.57;;;;;6.40;99101.00;;;;10480623;28;20196;-79
2021/12/04 14:28:49;;;;;;;13.83;5.07;;;;;6.40;99108.00;;;;10489446;28;20197;-79
2021/12/04 14:33:51;;;;;;;8.97;3.83;;;;;6.40;99100.00;;;;10469646;28;20236;-79
2021/12/04 14:38:53;;;;;;;7.77;4.57;;;;;6.50;99128.00;;;;10477397;28;20204;-78
2021/12/04 14:43:55;;;;;;;7.37;3.77;;;;;6.70;99130.00;;;;10481571;28;20246;-79
2021/12/04 14:49:02;;;;;;;9.23;4.37;;;;;6.70;99139.00;;;;10498435;28;20201;-79
2021/12/04 14:54:04;;;;;;;9.60;4.03;;;;;6.60;99141.00;;;;10482703;28;20216;-79
2021/12/04 14:59:16;;;;;;;10.03;4.00;;;;;6.50;99155.00;;;;10511309;28;20248;-79
2021/12/04 15:04:18;;;;;;;12.13;4.20;;;;;6.40;99162.00;;;;10455657;28;20201;-78
2021/12/04 15:09:22;;;;;;;9.50;4.10;;;;;6.30;99179.00;;;;10457970;28;20205;-78
2021/12/04 15:14:32;;;;;;;8.30;3.83;;;;;6.10;99191.00;;;;10457493;28;20715;-78
2021/12/04 15:19:40;;;;;;;8.83;3.50;;;;;5.90;99199.00;;;;10488834;28;20250;-79
2021/12/04 15:24:44;;;;;;;10.97;3.33;;;;;5.70;99216.00;;;;10482548;28;20652;-78
2021/12/04 15:29:49;;;;;;;10.87;3.73;;;;;5.60;99237.00;;;;10484984;28;20219;-78
2021/12/04 15:35:05;;;;;;;17.03;3.83;;;;;5.40;99244.00;;;;10486809;28;20220;-78
2021/12/04 15:40:35;;;;;;;10.53;3.77;;;;;5.30;99249.00;;;;10487049;28;20200;-79
2021/12/04 15:45:48;;;;;;;13.77;3.27;;;;;5.10;99242.00;;;;10475222;28;20248;-79
2021/12/04 15:56:04;;;;;;;9.90;3.60;;;;;4.90;99260.00;;;;10490699;28;20216;-78
2021/12/04 16:01:08;;;;;;;16.43;4.03;;;;;4.80;99266.00;;;;10468419;28;20208;-78
2021/12/04 16:06:11;;;;;;;12.83;4.33;;;;;4.90;99274.00;;;;10462357;28;20296;-79
2021/12/04 16:11:15;;;;;;;16.93;4.10;;;;;5.00;99279.00;;;;10489725;28;20201;-78
2021/12/04 16:16:24;;;;;;;16.30;3.97;;;;;5.10;99281.00;;;;10479864;28;20201;-78
2021/12/04 16:21:27;;;;;;;16.80;3.73;;;;;5.00;99291.00;;;;10491444;28;20185;-78
2021/12/04 16:26:30;;;;;;;16.57;3.63;;;;;5.00;99297.00;;;;10490136;28;20205;-78
2021/12/04 16:37:18;;;;;;;13.73;3.57;;;;;4.90;99307.00;;;;10480677;28;20201;-78
2021/12/04 16:42:20;;;;;;;16.63;3.33;;;;;4.80;99306.00;;;;10557063;28;20218;-78
2021/12/04 16:47:25;;;;;;;13.17;3.43;;;;;4.80;99300.00;;;;10549065;28;20223;-78
2021/12/04 16:57:52;;;;;;;20.47;4.70;;;;;4.50;99318.00;;;;10532853;28;20200;-78
2021/12/04 17:02:56;;;;;;;13.33;3.63;;;;;4.50;99319.00;;;;10524860;28;20194;-78
2021/12/04 17:07:58;;;;;;;22.67;4.07;;;;;4.60;99325.00;;;;10490830;28;20210;-78
2021/12/04 17:13:00;;;;;;;7.33;2.93;;;;;4.60;99328.00;;;;10531976;27;20224;-77
2021/12/04 17:18:05;;;;;;;13.60;3.73;;;;;4.70;99326.00;;;;10531872;27;20720;-78
2021/12/04 17:23:07;;;;;;;11.03;3.93;;;;;4.80;99323.00;;;;10531032;27;20198;-78
2021/12/04 17:28:11;;;;;;;20.57;3.80;;;;;4.90;99324.00;;;;10530964;27;20651;-78
2021/12/04 17:33:13;;;;;;;12.73;3.73;;;;;4.90;99346.00;;;;10527380;27;20266;-78
2021/12/04 17:38:16;;;;;;;16.13;4.00;;;;;5.00;99343.00;;;;10504083;28;20189;-78
2021/12/04 17:43:18;;;;;;;14.50;3.90;;;;;5.10;99353.00;;;;10486587;28;20207;-78
2021/12/04 17:48:20;;;;;;;12.43;3.70;;;;;5.10;99346.00;;;;10471653;28;20200;-78
2021/12/04 17:53:21;;;;;;;8.00;3.10;;;;;5.00;99348.00;;;;10471584;28;20227;-79
2021/12/04 17:58:25;;;;;;;8.90;3.73;;;;;5.00;99351.00;;;;10470974;28;20200;-78
2021/12/04 18:03:30;;;;;;;12.90;3.47;;;;;4.80;99353.00;;;;10471541;28;20212;-78
2021/12/04 18:08:32;;;;;;;14.77;3.10;;;;;4.70;99352.00;;;;10481654;28;20220;-78
2021/12/04 18:13:38;;;;;;;12.80;3.73;;;;;4.50;99335.00;;;;10487349;28;20216;-78
2021/12/04 18:18:41;;;;;;;11.33;3.23;;;;;4.30;99349.00;;;;10486643;28;20617;-78
2021/12/04 18:23:43;;;;;;;11.10;3.50;;;;;4.10;99337.00;;;;10471907;28;20197;-78
2021/12/04 18:28:45;;;;;;;16.47;3.47;;;;;4.10;99349.00;;;;10471655;28;20200;-78
2021/12/04 18:33:48;;;;;;;12.30;2.80;;;;;4.00;99350.00;;;;10487780;28;20663;-78
2021/12/04 18:38:50;;;;;;;13.50;3.40;;;;;4.10;99360.00;;;;10528906;28;20663;-78
2021/12/04 18:43:56;;;;;;;9.23;3.00;;;;;4.10;99351.00;;;;10529755;28;20257;-78
2021/12/04 18:48:59;;;;;;;13.07;3.80;;;;;4.10;99359.00;;;;10546277;28;20207;-78
2021/12/04 18:54:02;;;;;;;10.13;3.30;;;;;4.10;99357.00;;;;10513201;28;20622;-78
2021/12/04 18:59:05;;;;;;;12.37;3.47;;;;;4.10;99356.00;;;;10501241;28;20832;-78
2021/12/04 19:04:08;;;;;;;10.00;3.50;;;;;4.10;99366.00;;;;10486632;28;20193;-78
2021/12/04 19:09:13;;;;;;;15.97;4.00;;;;;4.00;99361.00;;;;10476129;28;20209;-78
2021/12/04 19:14:16;;;;;;;14.33;4.23;;;;;3.90;99364.00;;;;10470163;28;20218;-78
2021/12/04 19:19:18;;;;;;;17.33;5.37;;;;;3.90;99364.00;;;;10464625;28;20434;-78
2021/12/04 19:24:20;;;;;;;17.83;5.00;;;;;3.80;99368.00;;;;10468285;28;20198;-77
2021/12/04 19:29:22;;;;;;;14.10;4.53;;;;;3.80;99365.00;;;;10464331;28;20202;-78
2021/12/04 19:34:54;;;;;;;14.70;4.00;;;;;3.70;99368.00;;;;10472944;28;20224;-78
2021/12/04 19:50:45;;;;;;;18.13;3.93;;;;;3.70;99386.00;;;;10501772;28;20197;-78
2021/12/04 19:56:12;;;;;;;14.00;4.67;;;;;3.60;99393.00;;;;10469170;28;20283;-78
2021/12/04 20:01:31;;;;;;;14.50;3.53;;;;;3.70;99400.00;;;;10451942;28;20212;-78
2021/12/04 20:17:21;;;;;;;14.17;3.50;;;;;3.60;99386.00;;;;10499720;28;20197;-78
2021/12/04 20:22:24;;;;;;;13.17;3.50;;;;;3.70;99398.00;;;;10500122;28;20270;-78
2021/12/04 20:27:38;;;;;;;12.13;3.20;;;;;3.80;99404.00;;;;10492199;28;20196;-78
2021/12/04 20:32:51;;;;;;;11.53;3.40;;;;;3.90;99399.00;;;;10479650;28;20753;-78
2021/12/04 21:53:00;;;;;;;20.53;4.50;;;;;3.70;99404.00;;;;10480652;28;20212;-77
2021/12/04 22:14:25;;;;;;;13.47;3.47;;;;;3.60;99393.00;;;;10496547;28;20278;-78
2021/12/04 22:56:48;;;;;;;16.73;3.73;;;;;3.40;99378.00;;;;10479101;28;20230;-78
2021/12/04 23:01:57;;;;;;;13.53;3.00;;;;;3.40;99379.00;;;;10504359;28;20200;-77
2021/12/04 23:12:28;;;;;;;10.43;2.70;;;;;3.40;99364.00;;;;10468555;28;20247;-77
2021/12/04 23:17:56;;;;;;;11.83;2.40;;;;;3.40;99357.00;;;;10468243;28;20193;-78
